sensor_id;sensor_type;location;lat;lon;timestamp;P1;durP1;ratioP1;P2;durP2;ratioP2
35444;SDS011;21562;49.476;6.086;2023-11-19T00:01:39;0.50;;;0.30;;
35444;SDS011;21562;49.476;6.086;2023-11-19T00:04:05;0.40;;;0.08;;
35444;SDS011;21562;49.476;6.086;2023-11-19T00:06:31;0.03;;;0.00;;
35444;SDS011;21562;49.476;6.086;2023-11-19T00:08:56;0.85;;;0.15;;
35444;SDS011;21562;49.476;6.086;2023-11-19T00:11:22;0.20;;;0.10;;
35444;SDS011;21562;49.476;6.086;2023-11-19T00:13:47;0.30;;;0.20;;
35444;SDS011;21562;49.476;6.086;2023-11-19T00:16:13;0.40;;;0.20;;
35444;SDS011;21562;49.476;6.086;2023-11-19T00:18:39;0.45;;;0.10;;
35444;SDS011;21562;49.476;6.086;2023-11-19T00:21:05;0.80;;;0.10;;
35444;SDS011;21562;49.476;6.086;2023-11-19T00:23:31;0.03;;;0.03;;
35444;SDS011;21562;49.476;6.086;2023-11-19T00:25:57;0.10;;;0.00;;
35444;SDS011;21562;49.476;6.086;2023-11-19T00:28:23;1.65;;;0.10;;
35444;SDS011;21562;49.476;6.086;2023-11-19T00:30:49;0.10;;;0.10;;
35444;SDS011;21562;49.476;6.086;2023-11-19T00:33:14;0.75;;;0.10;;
35444;SDS011;21562;49.476;6.086;2023-11-19T00:35:40;0.50;;;0.10;;
35444;SDS011;21562;49.476;6.086;2023-11-19T00:38:05;0.05;;;0.03;;
35444;SDS011;21562;49.476;6.086;2023-11-19T00:40:32;0.13;;;0.10;;
35444;SDS011;21562;49.476;6.086;2023-11-19T00:42:57;0.40;;;0.20;;
35444;SDS011;21562;49.476;6.086;2023-11-19T00:45:23;1.08;;;0.30;;
35444;SDS011;21562;49.476;6.086;2023-11-19T00:47:48;0.90;;;0.10;;
35444;SDS011;21562;49.476;6.086;2023-11-19T00:50:14;0.32;;;0.20;;
35444;SDS011;21562;49.476;6.086;2023-11-19T00:52:40;0.40;;;0.30;;
35444;SDS011;21562;49.476;6.086;2023-11-19T00:55:06;0.30;;;0.30;;
35444;SDS011;21562;49.476;6.086;2023-11-19T00:57:32;0.22;;;0.20;;
35444;SDS011;21562;49.476;6.086;2023-11-19T01:00:01;0.52;;;0.40;;
35444;SDS011;21562;49.476;6.086;2023-11-19T01:02:31;1.50;;;0.50;;
35444;SDS011;21562;49.476;6.086;2023-11-19T01:04:57;0.40;;;0.38;;
35444;SDS011;21562;49.476;6.086;2023-11-19T01:07:22;0.90;;;0.50;;
35444;SDS011;21562;49.476;6.086;2023-11-19T01:09:49;1.33;;;0.80;;
35444;SDS011;21562;49.476;6.086;2023-11-19T01:12:15;2.03;;;0.82;;
35444;SDS011;21562;49.476;6.086;2023-11-19T01:14:41;1.70;;;0.93;;
35444;SDS011;21562;49.476;6.086;2023-11-19T01:17:07;3.03;;;1.00;;
35444;SDS011;21562;49.476;6.086;2023-11-19T01:19:34;1.90;;;1.58;;
35444;SDS011;21562;49.476;6.086;2023-11-19T01:21:59;2.78;;;1.50;;
35444;SDS011;21562;49.476;6.086;2023-11-19T01:24:25;2.97;;;1.40;;
35444;SDS011;21562;49.476;6.086;2023-11-19T01:26:53;2.28;;;1.65;;
35444;SDS011;21562;49.476;6.086;2023-11-19T01:29:19;2.10;;;1.45;;
35444;SDS011;21562;49.476;6.086;2023-11-19T01:31:45;2.08;;;1.58;;
35444;SDS011;21562;49.476;6.086;2023-11-19T01:34:12;1.98;;;1.70;;
35444;SDS011;21562;49.476;6.086;2023-11-19T01:36:37;2.15;;;1.80;;
35444;SDS011;21562;49.476;6.086;2023-11-19T01:39:04;2.80;;;2.00;;
35444;SDS011;21562;49.476;6.086;2023-11-19T01:41:33;5.22;;;3.00;;
35444;SDS011;21562;49.476;6.086;2023-11-19T01:44:00;5.53;;;2.47;;
35444;SDS011;21562;49.476;6.086;2023-11-19T01:46:26;4.70;;;3.15;;
35444;SDS011;21562;49.476;6.086;2023-11-19T01:48:52;4.90;;;3.17;;
35444;SDS011;21562;49.476;6.086;2023-11-19T01:51:19;6.07;;;3.28;;
35444;SDS011;21562;49.476;6.086;2023-11-19T01:53:46;5.90;;;3.05;;
35444;SDS011;21562;49.476;6.086;2023-11-19T01:56:13;6.00;;;3.53;;
35444;SDS011;21562;49.476;6.086;2023-11-19T01:58:40;3.35;;;2.65;;
35444;SDS011;21562;49.476;6.086;2023-11-19T02:01:07;5.57;;;2.78;;
35444;SDS011;21562;49.476;6.086;2023-11-19T02:03:34;2.65;;;1.88;;
35444;SDS011;21562;49.476;6.086;2023-11-19T02:05:59;3.00;;;1.98;;
35444;SDS011;21562;49.476;6.086;2023-11-19T02:08:25;2.33;;;1.83;;
35444;SDS011;21562;49.476;6.086;2023-11-19T02:10:51;4.05;;;2.10;;
35444;SDS011;21562;49.476;6.086;2023-11-19T02:13:20;6.45;;;2.05;;
35444;SDS011;21562;49.476;6.086;2023-11-19T02:15:46;5.45;;;2.33;;
35444;SDS011;21562;49.476;6.086;2023-11-19T02:20:44;3.15;;;2.15;;
35444;SDS011;21562;49.476;6.086;2023-11-19T02:23:09;3.15;;;2.45;;
35444;SDS011;21562;49.476;6.086;2023-11-19T02:25:35;3.88;;;2.63;;
35444;SDS011;21562;49.476;6.086;2023-11-19T02:28:02;5.50;;;2.90;;
35444;SDS011;21562;49.476;6.086;2023-11-19T02:30:29;7.18;;;2.75;;
35444;SDS011;21562;49.476;6.086;2023-11-19T02:32:55;4.20;;;2.40;;
35444;SDS011;21562;49.476;6.086;2023-11-19T02:35:22;4.90;;;3.10;;
35444;SDS011;21562;49.476;6.086;2023-11-19T02:37:49;5.70;;;3.05;;
35444;SDS011;21562;49.476;6.086;2023-11-19T02:40:14;5.18;;;2.55;;
35444;SDS011;21562;49.476;6.086;2023-11-19T02:42:40;3.58;;;2.60;;
35444;SDS011;21562;49.476;6.086;2023-11-19T02:45:07;4.32;;;2.55;;
35444;SDS011;21562;49.476;6.086;2023-11-19T02:47:38;5.88;;;2.30;;
35444;SDS011;21562;49.476;6.086;2023-11-19T02:50:08;2.95;;;2.10;;
35444;SDS011;21562;49.476;6.086;2023-11-19T02:52:42;4.70;;;1.92;;
35444;SDS011;21562;49.476;6.086;2023-11-19T02:55:09;3.58;;;1.67;;
35444;SDS011;21562;49.476;6.086;2023-11-19T02:57:38;8.93;;;2.25;;
35444;SDS011;21562;49.476;6.086;2023-11-19T03:00:17;4.05;;;2.53;;
35444;SDS011;21562;49.476;6.086;2023-11-19T03:02:53;3.17;;;2.10;;
35444;SDS011;21562;49.476;6.086;2023-11-19T03:05:25;5.53;;;2.42;;
35444;SDS011;21562;49.476;6.086;2023-11-19T03:07:55;4.32;;;2.22;;
35444;SDS011;21562;49.476;6.086;2023-11-19T03:10:20;5.40;;;2.70;;
35444;SDS011;21562;49.476;6.086;2023-11-19T03:12:46;3.53;;;1.77;;
35444;SDS011;21562;49.476;6.086;2023-11-19T03:15:11;2.70;;;1.95;;
35444;SDS011;21562;49.476;6.086;2023-11-19T03:17:40;3.13;;;1.77;;
35444;SDS011;21562;49.476;6.086;2023-11-19T03:20:07;2.15;;;1.65;;
35444;SDS011;21562;49.476;6.086;2023-11-19T03:22:42;4.28;;;1.80;;
35444;SDS011;21562;49.476;6.086;2023-11-19T03:25:09;3.42;;;1.48;;
35444;SDS011;21562;49.476;6.086;2023-11-19T03:27:38;2.92;;;1.58;;
35444;SDS011;21562;49.476;6.086;2023-11-19T03:30:05;2.50;;;1.60;;
35444;SDS011;21562;49.476;6.086;2023-11-19T03:32:31;2.53;;;1.48;;
35444;SDS011;21562;49.476;6.086;2023-11-19T03:34:58;2.28;;;1.33;;
35444;SDS011;21562;49.476;6.086;2023-11-19T03:37:24;4.85;;;2.05;;
35444;SDS011;21562;49.476;6.086;2023-11-19T03:39:51;4.43;;;2.00;;
35444;SDS011;21562;49.476;6.086;2023-11-19T03:42:18;8.55;;;2.70;;
35444;SDS011;21562;49.476;6.086;2023-11-19T03:44:45;3.97;;;2.60;;
35444;SDS011;21562;49.476;6.086;2023-11-19T03:47:11;6.78;;;2.63;;
35444;SDS011;21562;49.476;6.086;2023-11-19T03:49:36;3.45;;;2.05;;
35444;SDS011;21562;49.476;6.086;2023-11-19T03:52:02;7.47;;;2.88;;
35444;SDS011;21562;49.476;6.086;2023-11-19T03:54:28;7.53;;;2.40;;
35444;SDS011;21562;49.476;6.086;2023-11-19T03:56:54;5.85;;;2.50;;
35444;SDS011;21562;49.476;6.086;2023-11-19T03:59:20;4.82;;;2.30;;
35444;SDS011;21562;49.476;6.086;2023-11-19T04:01:45;5.40;;;2.75;;
35444;SDS011;21562;49.476;6.086;2023-11-19T04:04:11;7.60;;;2.58;;
35444;SDS011;21562;49.476;6.086;2023-11-19T04:06:37;4.80;;;2.25;;
35444;SDS011;21562;49.476;6.086;2023-11-19T04:09:03;5.63;;;2.67;;
35444;SDS011;21562;49.476;6.086;2023-11-19T04:11:28;7.15;;;2.85;;
35444;SDS011;21562;49.476;6.086;2023-11-19T04:13:54;11.13;;;2.67;;
35444;SDS011;21562;49.476;6.086;2023-11-19T04:16:25;7.38;;;2.47;;
35444;SDS011;21562;49.476;6.086;2023-11-19T04:18:53;7.63;;;2.88;;
35444;SDS011;21562;49.476;6.086;2023-11-19T04:21:18;8.50;;;3.05;;
35444;SDS011;21562;49.476;6.086;2023-11-19T04:23:44;8.40;;;2.05;;
35444;SDS011;21562;49.476;6.086;2023-11-19T04:26:09;3.55;;;1.92;;
35444;SDS011;21562;49.476;6.086;2023-11-19T04:28:35;4.72;;;1.75;;
35444;SDS011;21562;49.476;6.086;2023-11-19T04:31:01;3.80;;;1.48;;
35444;SDS011;21562;49.476;6.086;2023-11-19T04:33:28;6.65;;;1.60;;
35444;SDS011;21562;49.476;6.086;2023-11-19T04:35:54;6.03;;;1.50;;
35444;SDS011;21562;49.476;6.086;2023-11-19T04:38:19;8.68;;;2.38;;
35444;SDS011;21562;49.476;6.086;2023-11-19T04:40:45;7.68;;;1.60;;
35444;SDS011;21562;49.476;6.086;2023-11-19T04:43:10;10.25;;;2.45;;
35444;SDS011;21562;49.476;6.086;2023-11-19T04:45:36;7.15;;;1.77;;
35444;SDS011;21562;49.476;6.086;2023-11-19T04:48:02;7.05;;;1.80;;
35444;SDS011;21562;49.476;6.086;2023-11-19T04:50:27;7.32;;;1.88;;
35444;SDS011;21562;49.476;6.086;2023-11-19T04:52:53;6.47;;;2.20;;
35444;SDS011;21562;49.476;6.086;2023-11-19T04:55:19;6.25;;;1.67;;
35444;SDS011;21562;49.476;6.086;2023-11-19T04:57:44;6.38;;;1.60;;
35444;SDS011;21562;49.476;6.086;2023-11-19T05:00:10;9.20;;;2.03;;
35444;SDS011;21562;49.476;6.086;2023-11-19T05:02:36;10.43;;;2.20;;
35444;SDS011;21562;49.476;6.086;2023-11-19T05:05:02;7.03;;;2.08;;
35444;SDS011;21562;49.476;6.086;2023-11-19T05:07:31;7.43;;;1.75;;
35444;SDS011;21562;49.476;6.086;2023-11-19T05:09:56;7.10;;;1.90;;
35444;SDS011;21562;49.476;6.086;2023-11-19T05:12:23;5.25;;;1.40;;
35444;SDS011;21562;49.476;6.086;2023-11-19T05:14:49;5.40;;;1.50;;
35444;SDS011;21562;49.476;6.086;2023-11-19T05:17:18;14.43;;;2.17;;
35444;SDS011;21562;49.476;6.086;2023-11-19T05:19:44;6.35;;;1.23;;
35444;SDS011;21562;49.476;6.086;2023-11-19T05:22:10;9.50;;;1.33;;
35444;SDS011;21562;49.476;6.086;2023-11-19T05:24:36;10.85;;;1.60;;
35444;SDS011;21562;49.476;6.086;2023-11-19T05:27:01;6.38;;;1.63;;
35444;SDS011;21562;49.476;6.086;2023-11-19T05:29:27;9.98;;;1.58;;
35444;SDS011;21562;49.476;6.086;2023-11-19T05:31:53;7.78;;;1.40;;
35444;SDS011;21562;49.476;6.086;2023-11-19T05:34:20;8.00;;;1.38;;
35444;SDS011;21562;49.476;6.086;2023-11-19T05:36:46;6.18;;;1.40;;
35444;SDS011;21562;49.476;6.086;2023-11-19T05:39:12;11.05;;;1.92;;
35444;SDS011;21562;49.476;6.086;2023-11-19T05:41:37;6.32;;;1.52;;
35444;SDS011;21562;49.476;6.086;2023-11-19T05:44:03;6.95;;;1.35;;
35444;SDS011;21562;49.476;6.086;2023-11-19T05:46:28;7.20;;;1.50;;
35444;SDS011;21562;49.476;6.086;2023-11-19T05:48:54;10.93;;;1.60;;
35444;SDS011;21562;49.476;6.086;2023-11-19T05:51:20;5.43;;;1.45;;
35444;SDS011;21562;49.476;6.086;2023-11-19T05:53:45;9.20;;;1.55;;
35444;SDS011;21562;49.476;6.086;2023-11-19T05:56:11;5.95;;;1.50;;
35444;SDS011;21562;49.476;6.086;2023-11-19T05:58:37;8.43;;;1.52;;
35444;SDS011;21562;49.476;6.086;2023-11-19T06:01:04;8.63;;;1.67;;
35444;SDS011;21562;49.476;6.086;2023-11-19T06:03:32;10.35;;;1.55;;
35444;SDS011;21562;49.476;6.086;2023-11-19T06:05:58;6.88;;;1.50;;
35444;SDS011;21562;49.476;6.086;2023-11-19T06:08:23;5.35;;;1.30;;
35444;SDS011;21562;49.476;6.086;2023-11-19T06:10:52;6.35;;;1.15;;
35444;SDS011;21562;49.476;6.086;2023-11-19T06:13:17;8.90;;;1.23;;
35444;SDS011;21562;49.476;6.086;2023-11-19T06:15:43;7.00;;;1.23;;
35444;SDS011;21562;49.476;6.086;2023-11-19T06:18:09;6.10;;;1.65;;
35444;SDS011;21562;49.476;6.086;2023-11-19T06:20:36;6.55;;;1.60;;
35444;SDS011;21562;49.476;6.086;2023-11-19T06:23:02;8.85;;;1.92;;
35444;SDS011;21562;49.476;6.086;2023-11-19T06:25:27;6.13;;;1.45;;
35444;SDS011;21562;49.476;6.086;2023-11-19T06:27:53;3.40;;;0.93;;
35444;SDS011;21562;49.476;6.086;2023-11-19T06:30:19;3.70;;;0.90;;
35444;SDS011;21562;49.476;6.086;2023-11-19T06:32:45;9.32;;;1.60;;
35444;SDS011;21562;49.476;6.086;2023-11-19T06:35:12;5.82;;;1.25;;
35444;SDS011;21562;49.476;6.086;2023-11-19T06:37:39;7.15;;;1.42;;
35444;SDS011;21562;49.476;6.086;2023-11-19T06:40:05;9.98;;;1.70;;
35444;SDS011;21562;49.476;6.086;2023-11-19T06:42:32;13.00;;;2.35;;
35444;SDS011;21562;49.476;6.086;2023-11-19T06:44:58;6.00;;;1.35;;
35444;SDS011;21562;49.476;6.086;2023-11-19T06:47:27;9.30;;;2.08;;
35444;SDS011;21562;49.476;6.086;2023-11-19T06:49:53;10.23;;;1.50;;
35444;SDS011;21562;49.476;6.086;2023-11-19T06:52:19;6.55;;;1.30;;
35444;SDS011;21562;49.476;6.086;2023-11-19T06:54:45;6.55;;;2.38;;
35444;SDS011;21562;49.476;6.086;2023-11-19T06:57:11;12.13;;;1.60;;
35444;SDS011;21562;49.476;6.086;2023-11-19T06:59:36;6.03;;;1.30;;
35444;SDS011;21562;49.476;6.086;2023-11-19T07:02:03;10.10;;;1.83;;
35444;SDS011;21562;49.476;6.086;2023-11-19T07:04:29;8.07;;;1.38;;
35444;SDS011;21562;49.476;6.086;2023-11-19T07:06:55;11.05;;;2.35;;
35444;SDS011;21562;49.476;6.086;2023-11-19T07:09:21;12.10;;;2.15;;
35444;SDS011;21562;49.476;6.086;2023-11-19T07:11:48;34.88;;;3.67;;
35444;SDS011;21562;49.476;6.086;2023-11-19T07:14:16;8.20;;;1.52;;
35444;SDS011;21562;49.476;6.086;2023-11-19T07:16:42;7.55;;;2.30;;
35444;SDS011;21562;49.476;6.086;2023-11-19T07:19:08;7.50;;;1.30;;
35444;SDS011;21562;49.476;6.086;2023-11-19T07:21:34;6.95;;;1.45;;
35444;SDS011;21562;49.476;6.086;2023-11-19T07:24:00;4.35;;;0.95;;
35444;SDS011;21562;49.476;6.086;2023-11-19T07:26:27;5.40;;;1.30;;
35444;SDS011;21562;49.476;6.086;2023-11-19T07:28:52;7.50;;;1.95;;
35444;SDS011;21562;49.476;6.086;2023-11-19T07:31:18;6.53;;;1.48;;
35444;SDS011;21562;49.476;6.086;2023-11-19T07:33:44;9.07;;;1.25;;
35444;SDS011;21562;49.476;6.086;2023-11-19T07:36:11;6.68;;;1.35;;
35444;SDS011;21562;49.476;6.086;2023-11-19T07:38:37;3.88;;;1.50;;
35444;SDS011;21562;49.476;6.086;2023-11-19T07:41:03;10.07;;;1.25;;
35444;SDS011;21562;49.476;6.086;2023-11-19T07:43:30;9.32;;;1.88;;
35444;SDS011;21562;49.476;6.086;2023-11-19T07:45:56;9.75;;;1.48;;
35444;SDS011;21562;49.476;6.086;2023-11-19T07:48:24;5.38;;;1.35;;
35444;SDS011;21562;49.476;6.086;2023-11-19T07:50:50;11.38;;;1.50;;
35444;SDS011;21562;49.476;6.086;2023-11-19T07:53:17;8.48;;;1.42;;
35444;SDS011;21562;49.476;6.086;2023-11-19T07:55:42;9.82;;;2.05;;
35444;SDS011;21562;49.476;6.086;2023-11-19T07:58:09;6.50;;;1.30;;
35444;SDS011;21562;49.476;6.086;2023-11-19T08:00:35;10.63;;;1.30;;
35444;SDS011;21562;49.476;6.086;2023-11-19T08:03:02;6.57;;;1.52;;
35444;SDS011;21562;49.476;6.086;2023-11-19T08:05:28;9.90;;;1.48;;
35444;SDS011;21562;49.476;6.086;2023-11-19T08:07:53;10.88;;;1.20;;
35444;SDS011;21562;49.476;6.086;2023-11-19T08:10:19;10.77;;;1.55;;
35444;SDS011;21562;49.476;6.086;2023-11-19T08:12:45;7.65;;;1.42;;
35444;SDS011;21562;49.476;6.086;2023-11-19T08:15:11;8.95;;;1.33;;
35444;SDS011;21562;49.476;6.086;2023-11-19T08:17:36;8.73;;;1.38;;
35444;SDS011;21562;49.476;6.086;2023-11-19T08:20:03;6.25;;;1.27;;
35444;SDS011;21562;49.476;6.086;2023-11-19T08:22:30;7.82;;;1.33;;
35444;SDS011;21562;49.476;6.086;2023-11-19T08:24:56;5.53;;;1.33;;
35444;SDS011;21562;49.476;6.086;2023-11-19T08:27:21;11.50;;;1.30;;
35444;SDS011;21562;49.476;6.086;2023-11-19T08:29:53;11.43;;;1.63;;
35444;SDS011;21562;49.476;6.086;2023-11-19T08:32:20;6.88;;;1.10;;
35444;SDS011;21562;49.476;6.086;2023-11-19T08:34:46;7.90;;;1.42;;
35444;SDS011;21562;49.476;6.086;2023-11-19T08:37:12;11.43;;;1.25;;
35444;SDS011;21562;49.476;6.086;2023-11-19T08:39:38;9.32;;;1.30;;
35444;SDS011;21562;49.476;6.086;2023-11-19T08:42:03;10.85;;;1.83;;
35444;SDS011;21562;49.476;6.086;2023-11-19T08:44:29;9.57;;;1.42;;
35444;SDS011;21562;49.476;6.086;2023-11-19T08:46:55;6.82;;;1.25;;
35444;SDS011;21562;49.476;6.086;2023-11-19T08:49:20;13.65;;;1.75;;
35444;SDS011;21562;49.476;6.086;2023-11-19T08:51:46;9.63;;;1.45;;
35444;SDS011;21562;49.476;6.086;2023-11-19T08:54:12;9.10;;;1.30;;
35444;SDS011;21562;49.476;6.086;2023-11-19T08:56:38;8.68;;;2.22;;
35444;SDS011;21562;49.476;6.086;2023-11-19T08:59:04;9.13;;;1.55;;
35444;SDS011;21562;49.476;6.086;2023-11-19T09:01:30;8.27;;;2.08;;
35444;SDS011;21562;49.476;6.086;2023-11-19T09:03:56;10.20;;;1.90;;
35444;SDS011;21562;49.476;6.086;2023-11-19T09:06:22;13.05;;;2.03;;
35444;SDS011;21562;49.476;6.086;2023-11-19T09:08:48;6.22;;;1.60;;
35444;SDS011;21562;49.476;6.086;2023-11-19T09:11:13;14.27;;;1.65;;
35444;SDS011;21562;49.476;6.086;2023-11-19T09:13:39;15.63;;;2.53;;
35444;SDS011;21562;49.476;6.086;2023-11-19T09:16:05;14.98;;;2.10;;
35444;SDS011;21562;49.476;6.086;2023-11-19T09:18:31;15.23;;;2.00;;
35444;SDS011;21562;49.476;6.086;2023-11-19T09:20:57;16.42;;;2.72;;
35444;SDS011;21562;49.476;6.086;2023-11-19T09:23:23;13.93;;;1.75;;
35444;SDS011;21562;49.476;6.086;2023-11-19T09:25:50;9.23;;;1.70;;
35444;SDS011;21562;49.476;6.086;2023-11-19T09:28:17;13.27;;;1.58;;
35444;SDS011;21562;49.476;6.086;2023-11-19T09:30:43;9.32;;;1.88;;
35444;SDS011;21562;49.476;6.086;2023-11-19T09:33:08;16.67;;;2.03;;
35444;SDS011;21562;49.476;6.086;2023-11-19T09:35:34;8.55;;;1.65;;
35444;SDS011;21562;49.476;6.086;2023-11-19T09:38:00;16.30;;;1.55;;
35444;SDS011;21562;49.476;6.086;2023-11-19T09:40:26;19.00;;;2.53;;
35444;SDS011;21562;49.476;6.086;2023-11-19T09:42:53;11.38;;;1.60;;
35444;SDS011;21562;49.476;6.086;2023-11-19T09:45:20;15.45;;;2.20;;
35444;SDS011;21562;49.476;6.086;2023-11-19T09:47:47;13.10;;;1.60;;
35444;SDS011;21562;49.476;6.086;2023-11-19T09:50:14;10.95;;;1.83;;
35444;SDS011;21562;49.476;6.086;2023-11-19T09:52:44;11.73;;;2.03;;
35444;SDS011;21562;49.476;6.086;2023-11-19T09:55:11;15.02;;;2.67;;
35444;SDS011;21562;49.476;6.086;2023-11-19T09:57:40;17.55;;;2.88;;
35444;SDS011;21562;49.476;6.086;2023-11-19T10:00:09;14.18;;;4.50;;
35444;SDS011;21562;49.476;6.086;2023-11-19T10:02:37;10.68;;;2.10;;
35444;SDS011;21562;49.476;6.086;2023-11-19T10:05:06;12.57;;;2.28;;
35444;SDS011;21562;49.476;6.086;2023-11-19T10:07:35;10.60;;;1.58;;
35444;SDS011;21562;49.476;6.086;2023-11-19T10:10:02;11.43;;;1.75;;
35444;SDS011;21562;49.476;6.086;2023-11-19T10:12:31;14.25;;;1.80;;
35444;SDS011;21562;49.476;6.086;2023-11-19T10:14:57;11.63;;;1.45;;
35444;SDS011;21562;49.476;6.086;2023-11-19T10:17:32;12.48;;;1.83;;
35444;SDS011;21562;49.476;6.086;2023-11-19T10:19:59;20.27;;;2.65;;
35444;SDS011;21562;49.476;6.086;2023-11-19T10:22:25;11.35;;;1.80;;
35444;SDS011;21562;49.476;6.086;2023-11-19T10:24:52;14.30;;;1.75;;
35444;SDS011;21562;49.476;6.086;2023-11-19T10:27:18;13.68;;;1.88;;
35444;SDS011;21562;49.476;6.086;2023-11-19T10:29:45;11.13;;;1.92;;
35444;SDS011;21562;49.476;6.086;2023-11-19T10:32:12;11.10;;;2.05;;
35444;SDS011;21562;49.476;6.086;2023-11-19T10:34:39;13.25;;;1.73;;
35444;SDS011;21562;49.476;6.086;2023-11-19T10:37:04;8.57;;;1.80;;
35444;SDS011;21562;49.476;6.086;2023-11-19T10:39:51;15.10;;;1.70;;
35444;SDS011;21562;49.476;6.086;2023-11-19T10:42:19;13.15;;;2.15;;
35444;SDS011;21562;49.476;6.086;2023-11-19T10:44:45;5.97;;;1.52;;
35444;SDS011;21562;49.476;6.086;2023-11-19T10:47:10;12.88;;;1.65;;
35444;SDS011;21562;49.476;6.086;2023-11-19T10:49:38;8.20;;;1.52;;
35444;SDS011;21562;49.476;6.086;2023-11-19T10:52:05;11.35;;;1.58;;
35444;SDS011;21562;49.476;6.086;2023-11-19T10:54:32;10.90;;;1.63;;
35444;SDS011;21562;49.476;6.086;2023-11-19T10:56:59;10.95;;;1.92;;
35444;SDS011;21562;49.476;6.086;2023-11-19T10:59:28;10.80;;;1.63;;
35444;SDS011;21562;49.476;6.086;2023-11-19T11:01:57;10.20;;;1.55;;
35444;SDS011;21562;49.476;6.086;2023-11-19T11:04:24;19.58;;;2.15;;
35444;SDS011;21562;49.476;6.086;2023-11-19T11:06:53;11.75;;;1.70;;
35444;SDS011;21562;49.476;6.086;2023-11-19T11:09:20;11.07;;;1.92;;
35444;SDS011;21562;49.476;6.086;2023-11-19T11:11:48;11.07;;;2.15;;
35444;SDS011;21562;49.476;6.086;2023-11-19T11:14:16;11.88;;;1.80;;
35444;SDS011;21562;49.476;6.086;2023-11-19T11:16:46;13.30;;;2.22;;
35444;SDS011;21562;49.476;6.086;2023-11-19T11:19:13;10.25;;;1.33;;
35444;SDS011;21562;49.476;6.086;2023-11-19T11:21:42;13.45;;;1.27;;
35444;SDS011;21562;49.476;6.086;2023-11-19T11:24:27;15.27;;;1.90;;
35444;SDS011;21562;49.476;6.086;2023-11-19T11:27:28;8.80;;;1.38;;
35444;SDS011;21562;49.476;6.086;2023-11-19T11:35:24;8.68;;;1.42;;
35444;SDS011;21562;49.476;6.086;2023-11-19T11:38:08;13.15;;;2.05;;
35444;SDS011;21562;49.476;6.086;2023-11-19T11:40:34;11.57;;;1.73;;
35444;SDS011;21562;49.476;6.086;2023-11-19T11:43:01;7.10;;;1.15;;
35444;SDS011;21562;49.476;6.086;2023-11-19T11:45:36;7.63;;;1.52;;
35444;SDS011;21562;49.476;6.086;2023-11-19T11:48:17;4.97;;;1.23;;
35444;SDS011;21562;49.476;6.086;2023-11-19T11:50:47;11.75;;;1.88;;
35444;SDS011;21562;49.476;6.086;2023-11-19T11:53:18;8.77;;;1.55;;
35444;SDS011;21562;49.476;6.086;2023-11-19T11:58:13;10.95;;;1.77;;
35444;SDS011;21562;49.476;6.086;2023-11-19T12:00:42;12.38;;;2.13;;
35444;SDS011;21562;49.476;6.086;2023-11-19T12:03:08;15.20;;;1.92;;
35444;SDS011;21562;49.476;6.086;2023-11-19T12:05:40;12.48;;;1.38;;
35444;SDS011;21562;49.476;6.086;2023-11-19T12:08:07;11.95;;;1.77;;
35444;SDS011;21562;49.476;6.086;2023-11-19T12:10:38;13.23;;;1.33;;
35444;SDS011;21562;49.476;6.086;2023-11-19T12:13:15;14.25;;;1.83;;
35444;SDS011;21562;49.476;6.086;2023-11-19T12:20:52;12.57;;;1.58;;
35444;SDS011;21562;49.476;6.086;2023-11-19T12:23:17;8.48;;;1.65;;
35444;SDS011;21562;49.476;6.086;2023-11-19T12:25:43;10.13;;;2.17;;
35444;SDS011;21562;49.476;6.086;2023-11-19T12:28:13;15.68;;;2.00;;
35444;SDS011;21562;49.476;6.086;2023-11-19T12:30:42;10.80;;;1.77;;
35444;SDS011;21562;49.476;6.086;2023-11-19T12:33:08;8.70;;;1.75;;
35444;SDS011;21562;49.476;6.086;2023-11-19T12:35:44;17.75;;;1.80;;
35444;SDS011;21562;49.476;6.086;2023-11-19T12:38:18;7.15;;;1.40;;
35444;SDS011;21562;49.476;6.086;2023-11-19T12:41:02;8.13;;;2.03;;
35444;SDS011;21562;49.476;6.086;2023-11-19T12:43:37;8.95;;;1.45;;
35444;SDS011;21562;49.476;6.086;2023-11-19T12:46:16;13.77;;;2.05;;
35444;SDS011;21562;49.476;6.086;2023-11-19T12:48:48;15.65;;;2.35;;
35444;SDS011;21562;49.476;6.086;2023-11-19T12:51:15;10.05;;;2.20;;
35444;SDS011;21562;49.476;6.086;2023-11-19T12:53:53;13.05;;;1.67;;
35444;SDS011;21562;49.476;6.086;2023-11-19T12:56:23;9.32;;;2.03;;
35444;SDS011;21562;49.476;6.086;2023-11-19T12:58:49;9.68;;;1.55;;
35444;SDS011;21562;49.476;6.086;2023-11-19T13:01:16;8.43;;;1.70;;
35444;SDS011;21562;49.476;6.086;2023-11-19T13:03:44;8.55;;;1.35;;
35444;SDS011;21562;49.476;6.086;2023-11-19T13:06:10;9.32;;;2.10;;
35444;SDS011;21562;49.476;6.086;2023-11-19T13:11:06;13.98;;;2.13;;
35444;SDS011;21562;49.476;6.086;2023-11-19T13:13:33;9.85;;;1.48;;
35444;SDS011;21562;49.476;6.086;2023-11-19T13:16:18;13.68;;;2.47;;
35444;SDS011;21562;49.476;6.086;2023-11-19T13:18:44;7.80;;;1.73;;
35444;SDS011;21562;49.476;6.086;2023-11-19T13:21:09;12.43;;;1.88;;
35444;SDS011;21562;49.476;6.086;2023-11-19T13:23:35;12.23;;;2.83;;
35444;SDS011;21562;49.476;6.086;2023-11-19T13:26:01;11.57;;;2.15;;
35444;SDS011;21562;49.476;6.086;2023-11-19T13:28:26;8.60;;;1.33;;
35444;SDS011;21562;49.476;6.086;2023-11-19T13:30:52;11.52;;;1.50;;
35444;SDS011;21562;49.476;6.086;2023-11-19T13:33:19;9.05;;;1.50;;
35444;SDS011;21562;49.476;6.086;2023-11-19T13:35:45;9.32;;;1.55;;
35444;SDS011;21562;49.476;6.086;2023-11-19T13:38:10;12.77;;;1.70;;
35444;SDS011;21562;49.476;6.086;2023-11-19T13:40:36;13.63;;;1.90;;
35444;SDS011;21562;49.476;6.086;2023-11-19T13:43:01;8.50;;;1.92;;
35444;SDS011;21562;49.476;6.086;2023-11-19T13:45:27;5.28;;;1.40;;
35444;SDS011;21562;49.476;6.086;2023-11-19T13:47:53;11.80;;;2.45;;
35444;SDS011;21562;49.476;6.086;2023-11-19T13:50:18;11.20;;;1.70;;
35444;SDS011;21562;49.476;6.086;2023-11-19T13:52:45;10.85;;;1.95;;
35444;SDS011;21562;49.476;6.086;2023-11-19T13:55:12;10.85;;;3.03;;
35444;SDS011;21562;49.476;6.086;2023-11-19T13:57:39;12.68;;;2.17;;
35444;SDS011;21562;49.476;6.086;2023-11-19T14:00:06;15.35;;;2.63;;
35444;SDS011;21562;49.476;6.086;2023-11-19T14:02:38;9.43;;;2.25;;
35444;SDS011;21562;49.476;6.086;2023-11-19T14:05:07;12.93;;;2.65;;
35444;SDS011;21562;49.476;6.086;2023-11-19T14:07:33;13.45;;;1.70;;
35444;SDS011;21562;49.476;6.086;2023-11-19T14:09:59;16.27;;;1.92;;
35444;SDS011;21562;49.476;6.086;2023-11-19T14:12:24;16.02;;;2.42;;
35444;SDS011;21562;49.476;6.086;2023-11-19T14:14:50;16.63;;;2.13;;
35444;SDS011;21562;49.476;6.086;2023-11-19T14:17:16;13.93;;;2.70;;
35444;SDS011;21562;49.476;6.086;2023-11-19T14:19:42;10.40;;;2.50;;
35444;SDS011;21562;49.476;6.086;2023-11-19T14:22:08;17.60;;;3.08;;
35444;SDS011;21562;49.476;6.086;2023-11-19T14:24:34;9.93;;;1.63;;
35444;SDS011;21562;49.476;6.086;2023-11-19T14:27:00;9.55;;;1.85;;
35444;SDS011;21562;49.476;6.086;2023-11-19T14:29:26;14.95;;;1.80;;
35444;SDS011;21562;49.476;6.086;2023-11-19T14:31:54;17.52;;;2.58;;
35444;SDS011;21562;49.476;6.086;2023-11-19T14:34:20;18.23;;;2.47;;
35444;SDS011;21562;49.476;6.086;2023-11-19T14:36:46;16.13;;;2.60;;
35444;SDS011;21562;49.476;6.086;2023-11-19T14:39:12;16.85;;;2.88;;
35444;SDS011;21562;49.476;6.086;2023-11-19T14:41:38;19.80;;;2.38;;
35444;SDS011;21562;49.476;6.086;2023-11-19T14:44:04;13.05;;;2.10;;
35444;SDS011;21562;49.476;6.086;2023-11-19T14:46:30;14.45;;;4.07;;
35444;SDS011;21562;49.476;6.086;2023-11-19T14:48:56;13.80;;;2.13;;
35444;SDS011;21562;49.476;6.086;2023-11-19T14:51:22;17.95;;;2.40;;
35444;SDS011;21562;49.476;6.086;2023-11-19T14:53:47;10.07;;;1.83;;
35444;SDS011;21562;49.476;6.086;2023-11-19T14:56:13;12.35;;;2.55;;
35444;SDS011;21562;49.476;6.086;2023-11-19T14:58:39;13.45;;;2.47;;
35444;SDS011;21562;49.476;6.086;2023-11-19T15:01:05;13.60;;;2.13;;